ENOV/HOV METAR and TAF weather

Enter ICAO airport designator
Station Type Date Time Source
ENOV METAR 2021/09/28 15:20 UTC NOAA

ENOV 281520Z VRB02KT 9999 FEW060 17/01 Q1016 RMK WIND 2175FT 17013KT


Station Type Date Time Source
ENOV Decoded METAR 2021/09/28 15:20 UTC NOAA

Orsta-Volda / Hovden, Norway (ENOV) 62-11N 006-04E 74M
Sep 28, 2021 - 11:20 AM EDT / 2021.09.28 1520 UTC
Wind: Variable at 2 MPH (2 KT):0
Visibility: greater than 7 mile(s):0
Sky conditions: mostly clear
Temperature: 62 F (17 C)
Dew Point: 33 F (1 C)
Relative Humidity: 33%
Pressure (altimeter): 30.00 in. Hg (1016 hPa)
ob: ENOV 281520Z VRB02KT 9999 FEW060 17/01 Q1016 RMK WIND 2175FT 17013KT
cycle: 15

Station Type Date Time Source
ENOV TAF UTC NOAA

Error!

Example: see airport list